Terminal Aerodrome Forecast
Issued by NWS Charleston, WV

Current Version | Previous Version | Text Only | Print | Product List | Glossary Off
Versions: 1 2 3 4 5 6 7 8 9 10 11 12 13 14 15 16 17 18

000
FTUS41 KRLX 181500 AAA
TAFHTS
TAF AMD
KHTS 181527Z 1815/1912 VRB03KT P6SM OVC022
     FM181900 VRB03KT P6SM BKN025 BKN080
     FM182100 VRB03KT P6SM SCT025 BKN060=

USA.gov is the U.S. government's official web portal to all federal, state and local government web resources and services.